sensor_id;sensor_type;location;lat;lon;timestamp;temperature;humidity
7174;DHT22;3628;48.654;8.932;2022-08-19T00:01:48;20.40;99.90
7174;DHT22;3628;48.654;8.932;2022-08-19T00:04:16;20.40;99.90
7174;DHT22;3628;48.654;8.932;2022-08-19T00:06:43;20.40;99.90
7174;DHT22;3628;48.654;8.932;2022-08-19T00:09:11;20.40;99.90
7174;DHT22;3628;48.654;8.932;2022-08-19T00:11:38;20.40;99.90
7174;DHT22;3628;48.654;8.932;2022-08-19T00:14:05;20.30;99.90
7174;DHT22;3628;48.654;8.932;2022-08-19T00:16:31;20.40;99.90
7174;DHT22;3628;48.654;8.932;2022-08-19T00:18:57;20.40;99.90
7174;DHT22;3628;48.654;8.932;2022-08-19T00:21:23;20.30;99.90
7174;DHT22;3628;48.654;8.932;2022-08-19T00:23:49;20.30;99.90
7174;DHT22;3628;48.654;8.932;2022-08-19T00:26:15;20.30;99.90
7174;DHT22;3628;48.654;8.932;2022-08-19T00:28:41;20.30;99.90
7174;DHT22;3628;48.654;8.932;2022-08-19T00:31:07;20.20;99.90
7174;DHT22;3628;48.654;8.932;2022-08-19T00:33:33;20.20;99.90
7174;DHT22;3628;48.654;8.932;2022-08-19T00:36:00;20.20;99.90
7174;DHT22;3628;48.654;8.932;2022-08-19T00:38:26;20.20;99.90
7174;DHT22;3628;48.654;8.932;2022-08-19T00:40:52;20.20;99.90
7174;DHT22;3628;48.654;8.932;2022-08-19T00:43:20;20.20;99.90
7174;DHT22;3628;48.654;8.932;2022-08-19T00:45:47;20.10;99.90
7174;DHT22;3628;48.654;8.932;2022-08-19T00:48:13;20.10;99.90
7174;DHT22;3628;48.654;8.932;2022-08-19T00:50:40;20.10;99.90
7174;DHT22;3628;48.654;8.932;2022-08-19T00:53:10;20.10;99.90
7174;DHT22;3628;48.654;8.932;2022-08-19T00:55:37;20.10;99.90
7174;DHT22;3628;48.654;8.932;2022-08-19T00:58:07;20.10;99.90
7174;DHT22;3628;48.654;8.932;2022-08-19T01:00:35;20.10;99.90
7174;DHT22;3628;48.654;8.932;2022-08-19T01:03:06;20.10;99.90
7174;DHT22;3628;48.654;8.932;2022-08-19T01:05:32;20.10;99.90
7174;DHT22;3628;48.654;8.932;2022-08-19T01:08:00;20.10;99.90
7174;DHT22;3628;48.654;8.932;2022-08-19T01:10:28;20.10;99.90
7174;DHT22;3628;48.654;8.932;2022-08-19T01:12:55;20.10;99.90
7174;DHT22;3628;48.654;8.932;2022-08-19T01:15:29;20.10;99.90
7174;DHT22;3628;48.654;8.932;2022-08-19T01:17:56;20.20;99.90
7174;DHT22;3628;48.654;8.932;2022-08-19T01:20:25;20.20;99.90
7174;DHT22;3628;48.654;8.932;2022-08-19T01:22:54;20.20;99.90
7174;DHT22;3628;48.654;8.932;2022-08-19T01:25:35;20.20;99.90
7174;DHT22;3628;48.654;8.932;2022-08-19T01:28:01;20.10;99.90
7174;DHT22;3628;48.654;8.932;2022-08-19T01:30:29;20.20;99.90
7174;DHT22;3628;48.654;8.932;2022-08-19T01:32:57;20.20;99.90
7174;DHT22;3628;48.654;8.932;2022-08-19T01:35:25;20.10;99.90
7174;DHT22;3628;48.654;8.932;2022-08-19T01:38:04;20.10;99.90
7174;DHT22;3628;48.654;8.932;2022-08-19T01:40:38;20.00;99.90
7174;DHT22;3628;48.654;8.932;2022-08-19T01:43:05;19.90;99.90
7174;DHT22;3628;48.654;8.932;2022-08-19T01:45:33;19.90;99.90
7174;DHT22;3628;48.654;8.932;2022-08-19T01:47:59;19.80;99.90
7174;DHT22;3628;48.654;8.932;2022-08-19T01:50:26;19.70;99.90
7174;DHT22;3628;48.654;8.932;2022-08-19T01:52:52;19.70;99.90
7174;DHT22;3628;48.654;8.932;2022-08-19T01:55:20;19.70;99.90
7174;DHT22;3628;48.654;8.932;2022-08-19T01:57:50;19.60;99.90
7174;DHT22;3628;48.654;8.932;2022-08-19T02:00:18;19.60;99.90
7174;DHT22;3628;48.654;8.932;2022-08-19T02:02:44;19.50;99.90
7174;DHT22;3628;48.654;8.932;2022-08-19T02:05:11;19.50;99.90
7174;DHT22;3628;48.654;8.932;2022-08-19T02:07:39;19.40;99.90
7174;DHT22;3628;48.654;8.932;2022-08-19T02:10:07;19.40;99.90
7174;DHT22;3628;48.654;8.932;2022-08-19T02:12:33;19.40;99.90
7174;DHT22;3628;48.654;8.932;2022-08-19T02:14:59;19.30;99.90
7174;DHT22;3628;48.654;8.932;2022-08-19T02:17:26;19.30;99.90
7174;DHT22;3628;48.654;8.932;2022-08-19T02:19:54;19.30;99.90
7174;DHT22;3628;48.654;8.932;2022-08-19T02:22:19;19.30;99.90
7174;DHT22;3628;48.654;8.932;2022-08-19T02:24:45;19.30;99.90
7174;DHT22;3628;48.654;8.932;2022-08-19T02:27:11;19.30;99.90
7174;DHT22;3628;48.654;8.932;2022-08-19T02:29:37;19.20;99.90
7174;DHT22;3628;48.654;8.932;2022-08-19T02:32:03;19.20;99.90
7174;DHT22;3628;48.654;8.932;2022-08-19T02:34:29;19.20;99.90
7174;DHT22;3628;48.654;8.932;2022-08-19T02:36:55;19.10;99.90
7174;DHT22;3628;48.654;8.932;2022-08-19T02:39:20;19.10;99.90
7174;DHT22;3628;48.654;8.932;2022-08-19T02:41:46;19.10;99.90
7174;DHT22;3628;48.654;8.932;2022-08-19T02:44:12;19.10;99.90
7174;DHT22;3628;48.654;8.932;2022-08-19T02:46:37;19.10;99.90
7174;DHT22;3628;48.654;8.932;2022-08-19T02:49:06;19.10;99.90
7174;DHT22;3628;48.654;8.932;2022-08-19T02:51:40;19.00;99.90
7174;DHT22;3628;48.654;8.932;2022-08-19T02:54:08;19.00;99.90
7174;DHT22;3628;48.654;8.932;2022-08-19T02:56:36;19.00;99.90
7174;DHT22;3628;48.654;8.932;2022-08-19T02:59:02;19.10;99.90
7174;DHT22;3628;48.654;8.932;2022-08-19T03:01:31;19.10;99.90
7174;DHT22;3628;48.654;8.932;2022-08-19T03:04:02;19.10;99.90
7174;DHT22;3628;48.654;8.932;2022-08-19T03:06:29;19.10;99.90
7174;DHT22;3628;48.654;8.932;2022-08-19T03:08:55;19.10;99.90
7174;DHT22;3628;48.654;8.932;2022-08-19T03:11:29;19.00;99.90
7174;DHT22;3628;48.654;8.932;2022-08-19T03:13:55;19.00;99.90
7174;DHT22;3628;48.654;8.932;2022-08-19T03:16:24;19.00;99.90
7174;DHT22;3628;48.654;8.932;2022-08-19T03:18:50;19.00;99.90
7174;DHT22;3628;48.654;8.932;2022-08-19T03:21:24;19.00;99.90
7174;DHT22;3628;48.654;8.932;2022-08-19T03:23:53;19.00;99.90
7174;DHT22;3628;48.654;8.932;2022-08-19T03:26:19;18.90;99.90
7174;DHT22;3628;48.654;8.932;2022-08-19T03:28:46;18.90;99.90
7174;DHT22;3628;48.654;8.932;2022-08-19T03:31:16;18.90;99.90
7174;DHT22;3628;48.654;8.932;2022-08-19T03:33:42;18.90;99.90
7174;DHT22;3628;48.654;8.932;2022-08-19T03:36:12;18.90;99.90
7174;DHT22;3628;48.654;8.932;2022-08-19T03:38:48;18.90;99.90
7174;DHT22;3628;48.654;8.932;2022-08-19T03:41:22;18.90;99.90
7174;DHT22;3628;48.654;8.932;2022-08-19T03:43:49;18.90;99.90
7174;DHT22;3628;48.654;8.932;2022-08-19T03:46:21;18.80;99.90
7174;DHT22;3628;48.654;8.932;2022-08-19T03:48:49;18.80;99.90
7174;DHT22;3628;48.654;8.932;2022-08-19T03:51:30;18.80;99.90
7174;DHT22;3628;48.654;8.932;2022-08-19T03:53:58;18.80;99.90
7174;DHT22;3628;48.654;8.932;2022-08-19T03:56:25;18.80;99.90
7174;DHT22;3628;48.654;8.932;2022-08-19T03:58:52;18.80;99.90
7174;DHT22;3628;48.654;8.932;2022-08-19T04:01:20;18.80;99.90
7174;DHT22;3628;48.654;8.932;2022-08-19T04:03:46;18.80;99.90
7174;DHT22;3628;48.654;8.932;2022-08-19T04:08:41;18.90;99.90
7174;DHT22;3628;48.654;8.932;2022-08-19T04:11:13;18.90;99.90
7174;DHT22;3628;48.654;8.932;2022-08-19T04:13:39;18.80;99.90
7174;DHT22;3628;48.654;8.932;2022-08-19T04:16:06;18.90;99.90
7174;DHT22;3628;48.654;8.932;2022-08-19T04:18:35;18.80;99.90
7174;DHT22;3628;48.654;8.932;2022-08-19T04:21:02;18.80;99.90
7174;DHT22;3628;48.654;8.932;2022-08-19T04:23:28;18.80;99.90
7174;DHT22;3628;48.654;8.932;2022-08-19T04:25:54;18.80;99.90
7174;DHT22;3628;48.654;8.932;2022-08-19T04:28:20;18.80;99.90
7174;DHT22;3628;48.654;8.932;2022-08-19T04:30:49;18.80;99.90
7174;DHT22;3628;48.654;8.932;2022-08-19T04:33:17;18.80;99.90
7174;DHT22;3628;48.654;8.932;2022-08-19T04:35:46;18.80;99.90
7174;DHT22;3628;48.654;8.932;2022-08-19T04:38:12;18.80;99.90
7174;DHT22;3628;48.654;8.932;2022-08-19T04:40:46;18.80;99.90
7174;DHT22;3628;48.654;8.932;2022-08-19T04:43:33;18.80;99.90
7174;DHT22;3628;48.654;8.932;2022-08-19T04:46:05;18.80;99.90
7174;DHT22;3628;48.654;8.932;2022-08-19T04:48:31;18.80;99.90
7174;DHT22;3628;48.654;8.932;2022-08-19T04:50:57;18.80;99.90
7174;DHT22;3628;48.654;8.932;2022-08-19T04:53:28;18.90;99.90
7174;DHT22;3628;48.654;8.932;2022-08-19T04:55:55;18.90;99.90
7174;DHT22;3628;48.654;8.932;2022-08-19T04:58:23;18.90;99.90
7174;DHT22;3628;48.654;8.932;2022-08-19T05:00:48;18.90;99.90
7174;DHT22;3628;48.654;8.932;2022-08-19T05:03:14;18.90;99.90
7174;DHT22;3628;48.654;8.932;2022-08-19T05:05:42;18.90;99.90
7174;DHT22;3628;48.654;8.932;2022-08-19T05:08:08;18.90;99.90
7174;DHT22;3628;48.654;8.932;2022-08-19T05:10:38;19.00;99.90
7174;DHT22;3628;48.654;8.932;2022-08-19T05:13:05;19.00;99.90
7174;DHT22;3628;48.654;8.932;2022-08-19T05:15:31;19.00;99.90
7174;DHT22;3628;48.654;8.932;2022-08-19T05:17:56;19.00;99.90
7174;DHT22;3628;48.654;8.932;2022-08-19T05:20:41;19.00;99.90
7174;DHT22;3628;48.654;8.932;2022-08-19T05:23:25;19.10;99.90
7174;DHT22;3628;48.654;8.932;2022-08-19T05:25:51;19.10;99.90
7174;DHT22;3628;48.654;8.932;2022-08-19T05:28:18;19.10;99.90
7174;DHT22;3628;48.654;8.932;2022-08-19T05:30:44;19.10;99.90
7174;DHT22;3628;48.654;8.932;2022-08-19T05:33:11;19.20;99.90
7174;DHT22;3628;48.654;8.932;2022-08-19T05:35:38;19.20;99.90
7174;DHT22;3628;48.654;8.932;2022-08-19T05:38:05;19.20;99.90
7174;DHT22;3628;48.654;8.932;2022-08-19T05:40:34;19.20;99.90
7174;DHT22;3628;48.654;8.932;2022-08-19T05:43:02;19.20;99.90
7174;DHT22;3628;48.654;8.932;2022-08-19T05:45:27;19.30;99.90
7174;DHT22;3628;48.654;8.932;2022-08-19T05:47:53;19.20;99.90
7174;DHT22;3628;48.654;8.932;2022-08-19T05:50:19;19.20;99.90
7174;DHT22;3628;48.654;8.932;2022-08-19T05:52:45;19.20;99.90
7174;DHT22;3628;48.654;8.932;2022-08-19T05:55:10;19.20;99.90
7174;DHT22;3628;48.654;8.932;2022-08-19T05:57:36;19.20;99.90
7174;DHT22;3628;48.654;8.932;2022-08-19T06:00:04;19.20;99.90
7174;DHT22;3628;48.654;8.932;2022-08-19T06:02:33;19.20;99.90
7174;DHT22;3628;48.654;8.932;2022-08-19T06:05:01;19.20;99.90
7174;DHT22;3628;48.654;8.932;2022-08-19T06:07:27;19.20;99.90
7174;DHT22;3628;48.654;8.932;2022-08-19T06:09:54;19.20;99.90
7174;DHT22;3628;48.654;8.932;2022-08-19T06:12:20;19.20;99.90
7174;DHT22;3628;48.654;8.932;2022-08-19T06:14:51;19.30;99.90
7174;DHT22;3628;48.654;8.932;2022-08-19T06:17:20;19.30;99.90
7174;DHT22;3628;48.654;8.932;2022-08-19T06:19:46;19.30;99.90
7174;DHT22;3628;48.654;8.932;2022-08-19T06:22:12;19.30;99.90
7174;DHT22;3628;48.654;8.932;2022-08-19T06:24:38;19.30;99.90
7174;DHT22;3628;48.654;8.932;2022-08-19T06:27:04;19.40;99.90
7174;DHT22;3628;48.654;8.932;2022-08-19T06:29:31;19.50;99.90
7174;DHT22;3628;48.654;8.932;2022-08-19T06:31:58;19.50;99.90
7174;DHT22;3628;48.654;8.932;2022-08-19T06:34:25;19.50;99.90
7174;DHT22;3628;48.654;8.932;2022-08-19T06:36:54;19.50;99.90
7174;DHT22;3628;48.654;8.932;2022-08-19T06:39:26;19.50;99.90
7174;DHT22;3628;48.654;8.932;2022-08-19T06:41:55;19.40;99.90
7174;DHT22;3628;48.654;8.932;2022-08-19T06:44:24;19.40;99.90
7174;DHT22;3628;48.654;8.932;2022-08-19T06:46:52;19.40;99.90
7174;DHT22;3628;48.654;8.932;2022-08-19T06:49:18;19.30;99.90
7174;DHT22;3628;48.654;8.932;2022-08-19T06:51:46;19.30;99.90
7174;DHT22;3628;48.654;8.932;2022-08-19T06:54:13;19.40;99.90
7174;DHT22;3628;48.654;8.932;2022-08-19T06:56:39;19.40;99.90
7174;DHT22;3628;48.654;8.932;2022-08-19T06:59:10;19.50;99.90
7174;DHT22;3628;48.654;8.932;2022-08-19T07:01:38;19.50;99.90
7174;DHT22;3628;48.654;8.932;2022-08-19T07:04:06;19.70;99.90
7174;DHT22;3628;48.654;8.932;2022-08-19T07:06:32;19.80;99.90
7174;DHT22;3628;48.654;8.932;2022-08-19T07:08:58;19.90;99.90
7174;DHT22;3628;48.654;8.932;2022-08-19T07:11:24;19.90;99.90
7174;DHT22;3628;48.654;8.932;2022-08-19T07:13:50;19.80;99.90
7174;DHT22;3628;48.654;8.932;2022-08-19T07:16:17;19.80;99.90
7174;DHT22;3628;48.654;8.932;2022-08-19T07:18:45;19.90;99.90
7174;DHT22;3628;48.654;8.932;2022-08-19T07:21:21;20.00;99.90
7174;DHT22;3628;48.654;8.932;2022-08-19T07:23:48;19.90;99.90
7174;DHT22;3628;48.654;8.932;2022-08-19T07:26:20;20.00;99.90
7174;DHT22;3628;48.654;8.932;2022-08-19T07:28:48;20.10;99.90
7174;DHT22;3628;48.654;8.932;2022-08-19T07:31:20;20.10;99.90
7174;DHT22;3628;48.654;8.932;2022-08-19T07:33:46;20.00;99.90
7174;DHT22;3628;48.654;8.932;2022-08-19T07:36:15;20.00;99.90
7174;DHT22;3628;48.654;8.932;2022-08-19T07:38:43;20.00;99.90
7174;DHT22;3628;48.654;8.932;2022-08-19T07:41:11;20.00;99.90
7174;DHT22;3628;48.654;8.932;2022-08-19T07:43:38;20.00;99.90
7174;DHT22;3628;48.654;8.932;2022-08-19T07:46:04;20.10;99.90
7174;DHT22;3628;48.654;8.932;2022-08-19T07:48:30;20.00;99.90
7174;DHT22;3628;48.654;8.932;2022-08-19T07:50:58;20.00;99.90
7174;DHT22;3628;48.654;8.932;2022-08-19T07:53:25;20.10;99.90
7174;DHT22;3628;48.654;8.932;2022-08-19T07:55:51;20.10;99.90
7174;DHT22;3628;48.654;8.932;2022-08-19T07:58:19;20.20;99.90
7174;DHT22;3628;48.654;8.932;2022-08-19T08:00:47;20.20;99.90
7174;DHT22;3628;48.654;8.932;2022-08-19T08:03:14;20.20;99.90
7174;DHT22;3628;48.654;8.932;2022-08-19T08:05:40;20.40;99.90
7174;DHT22;3628;48.654;8.932;2022-08-19T08:08:26;20.40;99.90
7174;DHT22;3628;48.654;8.932;2022-08-19T08:11:11;20.50;99.90
7174;DHT22;3628;48.654;8.932;2022-08-19T08:13:37;20.60;99.90
7174;DHT22;3628;48.654;8.932;2022-08-19T08:16:03;20.70;99.90
7174;DHT22;3628;48.654;8.932;2022-08-19T08:18:29;20.60;99.90
7174;DHT22;3628;48.654;8.932;2022-08-19T08:20:57;20.50;99.90
7174;DHT22;3628;48.654;8.932;2022-08-19T08:23:23;20.50;99.90
7174;DHT22;3628;48.654;8.932;2022-08-19T08:25:56;20.50;99.90
7174;DHT22;3628;48.654;8.932;2022-08-19T08:28:23;20.40;99.90
7174;DHT22;3628;48.654;8.932;2022-08-19T08:30:49;20.40;99.90
7174;DHT22;3628;48.654;8.932;2022-08-19T08:33:20;20.30;99.90
7174;DHT22;3628;48.654;8.932;2022-08-19T08:35:46;20.30;99.90
7174;DHT22;3628;48.654;8.932;2022-08-19T08:38:13;20.30;99.90
7174;DHT22;3628;48.654;8.932;2022-08-19T08:40:47;20.20;99.90
7174;DHT22;3628;48.654;8.932;2022-08-19T08:43:34;20.20;99.90
7174;DHT22;3628;48.654;8.932;2022-08-19T08:46:10;20.20;99.90
7174;DHT22;3628;48.654;8.932;2022-08-19T08:48:56;20.10;99.90
7174;DHT22;3628;48.654;8.932;2022-08-19T08:51:33;20.20;99.90
7174;DHT22;3628;48.654;8.932;2022-08-19T08:54:02;20.20;99.90
7174;DHT22;3628;48.654;8.932;2022-08-19T08:56:29;20.20;99.90
7174;DHT22;3628;48.654;8.932;2022-08-19T08:59:05;20.10;99.90
7174;DHT22;3628;48.654;8.932;2022-08-19T09:01:34;20.10;99.90
7174;DHT22;3628;48.654;8.932;2022-08-19T09:03:59;20.10;99.90
7174;DHT22;3628;48.654;8.932;2022-08-19T09:09:26;20.20;99.90
7174;DHT22;3628;48.654;8.932;2022-08-19T09:14:57;20.20;99.90
7174;DHT22;3628;48.654;8.932;2022-08-19T09:17:27;20.20;99.90
7174;DHT22;3628;48.654;8.932;2022-08-19T09:22:38;20.30;99.90
7174;DHT22;3628;48.654;8.932;2022-08-19T09:25:06;20.40;99.90
7174;DHT22;3628;48.654;8.932;2022-08-19T09:27:32;20.50;99.90
7174;DHT22;3628;48.654;8.932;2022-08-19T09:29:58;20.60;99.90
7174;DHT22;3628;48.654;8.932;2022-08-19T09:32:24;20.60;99.90
7174;DHT22;3628;48.654;8.932;2022-08-19T09:34:51;20.60;99.90
7174;DHT22;3628;48.654;8.932;2022-08-19T09:37:20;20.70;99.90
7174;DHT22;3628;48.654;8.932;2022-08-19T09:39:47;20.70;99.90
7174;DHT22;3628;48.654;8.932;2022-08-19T09:42:12;20.70;99.90
7174;DHT22;3628;48.654;8.932;2022-08-19T09:44:40;20.60;99.90
7174;DHT22;3628;48.654;8.932;2022-08-19T09:47:07;20.70;99.90
7174;DHT22;3628;48.654;8.932;2022-08-19T09:49:33;20.70;99.90
7174;DHT22;3628;48.654;8.932;2022-08-19T09:51:59;20.70;99.90
7174;DHT22;3628;48.654;8.932;2022-08-19T09:54:25;20.70;99.90
7174;DHT22;3628;48.654;8.932;2022-08-19T09:56:52;20.70;99.90
7174;DHT22;3628;48.654;8.932;2022-08-19T09:59:18;20.70;99.90
7174;DHT22;3628;48.654;8.932;2022-08-19T10:01:47;20.70;99.90
7174;DHT22;3628;48.654;8.932;2022-08-19T10:04:13;20.70;99.90
7174;DHT22;3628;48.654;8.932;2022-08-19T10:06:39;20.80;99.90
7174;DHT22;3628;48.654;8.932;2022-08-19T10:09:09;20.80;99.90
7174;DHT22;3628;48.654;8.932;2022-08-19T10:11:40;20.70;99.90
7174;DHT22;3628;48.654;8.932;2022-08-19T10:14:11;20.70;99.90
7174;DHT22;3628;48.654;8.932;2022-08-19T10:16:36;20.80;99.90
7174;DHT22;3628;48.654;8.932;2022-08-19T10:19:02;20.90;99.90
7174;DHT22;3628;48.654;8.932;2022-08-19T10:21:32;20.90;99.90
7174;DHT22;3628;48.654;8.932;2022-08-19T10:24:00;21.00;99.90
7174;DHT22;3628;48.654;8.932;2022-08-19T10:26:31;21.10;99.90
7174;DHT22;3628;48.654;8.932;2022-08-19T10:29:00;21.20;99.90
7174;DHT22;3628;48.654;8.932;2022-08-19T10:31:33;21.20;99.90
7174;DHT22;3628;48.654;8.932;2022-08-19T10:34:00;21.30;99.90
7174;DHT22;3628;48.654;8.932;2022-08-19T10:36:31;21.30;99.90
7174;DHT22;3628;48.654;8.932;2022-08-19T10:38:59;21.40;99.90
7174;DHT22;3628;48.654;8.932;2022-08-19T10:41:30;21.40;99.90
7174;DHT22;3628;48.654;8.932;2022-08-19T10:43:59;21.50;99.90
7174;DHT22;3628;48.654;8.932;2022-08-19T10:46:26;21.60;99.90
7174;DHT22;3628;48.654;8.932;2022-08-19T10:48:53;21.70;99.90
7174;DHT22;3628;48.654;8.932;2022-08-19T10:51:19;21.70;99.90
7174;DHT22;3628;48.654;8.932;2022-08-19T10:54:04;21.80;99.90
7174;DHT22;3628;48.654;8.932;2022-08-19T10:56:30;21.80;99.90
7174;DHT22;3628;48.654;8.932;2022-08-19T10:59:16;21.90;99.90
7174;DHT22;3628;48.654;8.932;2022-08-19T11:01:44;21.80;99.90
7174;DHT22;3628;48.654;8.932;2022-08-19T11:04:12;21.80;99.90
7174;DHT22;3628;48.654;8.932;2022-08-19T11:06:40;21.80;99.90
7174;DHT22;3628;48.654;8.932;2022-08-19T11:09:07;22.00;99.90
7174;DHT22;3628;48.654;8.932;2022-08-19T11:11:34;22.10;99.90
7174;DHT22;3628;48.654;8.932;2022-08-19T11:14:14;22.10;99.90
7174;DHT22;3628;48.654;8.932;2022-08-19T11:16:41;22.20;99.90
7174;DHT22;3628;48.654;8.932;2022-08-19T11:19:09;22.30;99.90
7174;DHT22;3628;48.654;8.932;2022-08-19T11:21:41;22.30;99.90
7174;DHT22;3628;48.654;8.932;2022-08-19T11:24:09;22.30;99.90
7174;DHT22;3628;48.654;8.932;2022-08-19T11:26:36;22.40;99.90
7174;DHT22;3628;48.654;8.932;2022-08-19T11:29:04;22.40;99.90
7174;DHT22;3628;48.654;8.932;2022-08-19T11:31:31;22.40;99.90
7174;DHT22;3628;48.654;8.932;2022-08-19T11:33:58;22.50;99.90
7174;DHT22;3628;48.654;8.932;2022-08-19T11:36:25;22.50;99.90
7174;DHT22;3628;48.654;8.932;2022-08-19T11:38:51;22.50;99.90
7174;DHT22;3628;48.654;8.932;2022-08-19T11:41:19;22.40;99.90
7174;DHT22;3628;48.654;8.932;2022-08-19T11:43:46;22.40;99.90
7174;DHT22;3628;48.654;8.932;2022-08-19T11:46:13;22.30;99.90
7174;DHT22;3628;48.654;8.932;2022-08-19T11:48:40;22.30;99.90
7174;DHT22;3628;48.654;8.932;2022-08-19T11:51:08;22.30;99.90
7174;DHT22;3628;48.654;8.932;2022-08-19T11:53:35;22.40;99.90
7174;DHT22;3628;48.654;8.932;2022-08-19T11:56:01;22.50;99.90
7174;DHT22;3628;48.654;8.932;2022-08-19T11:58:27;22.70;99.90
7174;DHT22;3628;48.654;8.932;2022-08-19T12:00:54;22.90;99.90
7174;DHT22;3628;48.654;8.932;2022-08-19T12:03:20;22.90;99.90
7174;DHT22;3628;48.654;8.932;2022-08-19T12:05:46;23.00;99.90
7174;DHT22;3628;48.654;8.932;2022-08-19T12:08:12;23.10;99.90
7174;DHT22;3628;48.654;8.932;2022-08-19T12:10:39;23.00;99.90
7174;DHT22;3628;48.654;8.932;2022-08-19T12:13:05;23.00;99.90
7174;DHT22;3628;48.654;8.932;2022-08-19T12:15:38;23.00;99.90
7174;DHT22;3628;48.654;8.932;2022-08-19T12:18:06;23.00;99.90
7174;DHT22;3628;48.654;8.932;2022-08-19T12:20:35;23.10;99.90
7174;DHT22;3628;48.654;8.932;2022-08-19T12:23:02;23.40;99.90
7174;DHT22;3628;48.654;8.932;2022-08-19T12:25:28;23.60;99.90
7174;DHT22;3628;48.654;8.932;2022-08-19T12:27:54;23.90;99.90
7174;DHT22;3628;48.654;8.932;2022-08-19T12:30:20;24.20;99.90
7174;DHT22;3628;48.654;8.932;2022-08-19T12:32:46;24.50;99.90
7174;DHT22;3628;48.654;8.932;2022-08-19T12:35:11;24.80;99.90
7174;DHT22;3628;48.654;8.932;2022-08-19T12:37:38;24.80;99.90
7174;DHT22;3628;48.654;8.932;2022-08-19T12:40:04;24.90;99.90
7174;DHT22;3628;48.654;8.932;2022-08-19T12:42:30;25.00;99.90
7174;DHT22;3628;48.654;8.932;2022-08-19T12:44:56;25.20;99.90
7174;DHT22;3628;48.654;8.932;2022-08-19T12:47:22;25.20;99.90
7174;DHT22;3628;48.654;8.932;2022-08-19T12:49:48;25.10;99.90
7174;DHT22;3628;48.654;8.932;2022-08-19T12:52:14;25.00;99.90
7174;DHT22;3628;48.654;8.932;2022-08-19T12:54:41;24.80;99.90
7174;DHT22;3628;48.654;8.932;2022-08-19T12:57:08;24.60;99.90
7174;DHT22;3628;48.654;8.932;2022-08-19T12:59:35;24.60;99.90
7174;DHT22;3628;48.654;8.932;2022-08-19T13:02:03;24.60;99.90
7174;DHT22;3628;48.654;8.932;2022-08-19T13:04:29;24.50;99.90
7174;DHT22;3628;48.654;8.932;2022-08-19T13:06:55;24.40;99.90
7174;DHT22;3628;48.654;8.932;2022-08-19T13:09:21;24.50;99.90
7174;DHT22;3628;48.654;8.932;2022-08-19T13:11:46;24.50;99.90
7174;DHT22;3628;48.654;8.932;2022-08-19T13:14:12;24.50;99.90
7174;DHT22;3628;48.654;8.932;2022-08-19T13:16:37;24.70;99.90
7174;DHT22;3628;48.654;8.932;2022-08-19T13:19:04;24.80;99.90
7174;DHT22;3628;48.654;8.932;2022-08-19T13:21:30;24.70;99.90
7174;DHT22;3628;48.654;8.932;2022-08-19T13:23:56;24.70;99.90
7174;DHT22;3628;48.654;8.932;2022-08-19T13:26:22;24.90;99.90
7174;DHT22;3628;48.654;8.932;2022-08-19T13:28:48;25.10;99.90
7174;DHT22;3628;48.654;8.932;2022-08-19T13:31:35;25.20;99.90
7174;DHT22;3628;48.654;8.932;2022-08-19T13:34:33;25.10;99.90
7174;DHT22;3628;48.654;8.932;2022-08-19T13:37:00;25.10;99.90
7174;DHT22;3628;48.654;8.932;2022-08-19T13:39:29;25.20;99.90
7174;DHT22;3628;48.654;8.932;2022-08-19T13:41:54;25.50;99.90
7174;DHT22;3628;48.654;8.932;2022-08-19T13:44:21;25.60;99.90
7174;DHT22;3628;48.654;8.932;2022-08-19T13:46:47;25.60;99.90
7174;DHT22;3628;48.654;8.932;2022-08-19T13:49:14;25.60;99.90
7174;DHT22;3628;48.654;8.932;2022-08-19T13:51:41;25.50;99.90
7174;DHT22;3628;48.654;8.932;2022-08-19T13:54:08;25.50;99.90
7174;DHT22;3628;48.654;8.932;2022-08-19T13:56:34;25.50;99.90
7174;DHT22;3628;48.654;8.932;2022-08-19T13:59:00;25.40;99.90
7174;DHT22;3628;48.654;8.932;2022-08-19T14:01:26;25.20;99.90
7174;DHT22;3628;48.654;8.932;2022-08-19T14:03:52;25.00;99.90
7174;DHT22;3628;48.654;8.932;2022-08-19T14:06:18;24.90;99.90
7174;DHT22;3628;48.654;8.932;2022-08-19T14:08:45;24.90;99.90
7174;DHT22;3628;48.654;8.932;2022-08-19T14:11:10;24.90;99.90
7174;DHT22;3628;48.654;8.932;2022-08-19T14:13:36;24.90;99.90
7174;DHT22;3628;48.654;8.932;2022-08-19T14:16:07;25.00;99.90
7174;DHT22;3628;48.654;8.932;2022-08-19T14:18:33;25.10;99.90
7174;DHT22;3628;48.654;8.932;2022-08-19T14:20:59;25.10;99.90
7174;DHT22;3628;48.654;8.932;2022-08-19T14:23:25;25.00;99.90
7174;DHT22;3628;48.654;8.932;2022-08-19T14:25:50;24.90;99.90
7174;DHT22;3628;48.654;8.932;2022-08-19T14:28:16;25.00;99.90
7174;DHT22;3628;48.654;8.932;2022-08-19T14:30:42;24.90;99.90
7174;DHT22;3628;48.654;8.932;2022-08-19T14:33:10;24.80;99.90
7174;DHT22;3628;48.654;8.932;2022-08-19T14:35:36;24.70;99.90
7174;DHT22;3628;48.654;8.932;2022-08-19T14:38:06;24.60;99.90
7174;DHT22;3628;48.654;8.932;2022-08-19T14:40:32;24.50;99.90
7174;DHT22;3628;48.654;8.932;2022-08-19T14:43:02;24.40;99.90
7174;DHT22;3628;48.654;8.932;2022-08-19T14:45:31;24.50;99.90
7174;DHT22;3628;48.654;8.932;2022-08-19T14:47:57;24.50;99.90
7174;DHT22;3628;48.654;8.932;2022-08-19T14:50:24;24.50;99.90
7174;DHT22;3628;48.654;8.932;2022-08-19T14:52:56;24.60;99.90
7174;DHT22;3628;48.654;8.932;2022-08-19T14:55:22;24.60;99.90
7174;DHT22;3628;48.654;8.932;2022-08-19T14:57:47;24.50;99.90
7174;DHT22;3628;48.654;8.932;2022-08-19T15:00:14;24.50;99.90
7174;DHT22;3628;48.654;8.932;2022-08-19T15:02:43;24.50;99.90
7174;DHT22;3628;48.654;8.932;2022-08-19T15:05:12;24.60;99.90
7174;DHT22;3628;48.654;8.932;2022-08-19T15:07:39;24.60;99.90
7174;DHT22;3628;48.654;8.932;2022-08-19T15:10:06;24.60;99.90
7174;DHT22;3628;48.654;8.932;2022-08-19T15:12:33;24.60;99.90
7174;DHT22;3628;48.654;8.932;2022-08-19T15:14:59;24.60;99.90
7174;DHT22;3628;48.654;8.932;2022-08-19T15:17:25;24.70;99.90
7174;DHT22;3628;48.654;8.932;2022-08-19T15:19:51;24.70;99.90
7174;DHT22;3628;48.654;8.932;2022-08-19T15:22:17;24.90;99.90
7174;DHT22;3628;48.654;8.932;2022-08-19T15:24:42;25.10;99.90
7174;DHT22;3628;48.654;8.932;2022-08-19T15:27:12;25.20;99.90
7174;DHT22;3628;48.654;8.932;2022-08-19T15:29:38;25.30;99.90
7174;DHT22;3628;48.654;8.932;2022-08-19T15:32:04;25.40;99.90
7174;DHT22;3628;48.654;8.932;2022-08-19T15:34:31;25.60;99.90
7174;DHT22;3628;48.654;8.932;2022-08-19T15:36:57;25.70;99.90
7174;DHT22;3628;48.654;8.932;2022-08-19T15:39:24;25.80;99.90
7174;DHT22;3628;48.654;8.932;2022-08-19T15:41:49;26.00;99.90
7174;DHT22;3628;48.654;8.932;2022-08-19T15:44:18;26.10;99.90
7174;DHT22;3628;48.654;8.932;2022-08-19T15:46:46;26.30;99.90
7174;DHT22;3628;48.654;8.932;2022-08-19T15:49:13;26.30;99.90
7174;DHT22;3628;48.654;8.932;2022-08-19T15:51:41;26.20;99.90
7174;DHT22;3628;48.654;8.932;2022-08-19T15:54:10;26.30;99.90
7174;DHT22;3628;48.654;8.932;2022-08-19T15:56:36;26.20;99.90
7174;DHT22;3628;48.654;8.932;2022-08-19T15:59:20;26.10;99.90
7174;DHT22;3628;48.654;8.932;2022-08-19T16:02:05;26.00;99.90
7174;DHT22;3628;48.654;8.932;2022-08-19T16:04:50;25.90;99.90
7174;DHT22;3628;48.654;8.932;2022-08-19T16:07:35;25.70;99.90
7174;DHT22;3628;48.654;8.932;2022-08-19T16:10:00;25.80;99.90
7174;DHT22;3628;48.654;8.932;2022-08-19T16:12:26;25.70;99.90
7174;DHT22;3628;48.654;8.932;2022-08-19T16:14:55;25.80;99.90
7174;DHT22;3628;48.654;8.932;2022-08-19T16:17:20;25.80;99.90
7174;DHT22;3628;48.654;8.932;2022-08-19T16:19:47;25.80;99.90